Time;durP1;ratioP1;P1;durP2;ratioP2;P2;SDS_P1;SDS_P2;PMS_P1;PMS_P2;Temp;Humidity;BMP_temperature;BMP_pressure;BME280_temperature;BME280_humidity;BME280_pressure;Samples;Min_cycle;Max_cycle;Signal;HPM_P1;HPM_P2
2022/04/13 00:02:17;;;;;;;4.50;3.93;;;;;5.10;96987.00;;;;4958639;28;20427;-85
2022/04/13 00:05:09;;;;;;;6.70;4.37;;;;;4.70;96975.00;;;;4959364;28;20942;-85
2022/04/13 00:07:58;;;;;;;6.80;4.13;;;;;4.60;96971.00;;;;4965583;28;20483;-85
2022/04/13 00:10:47;;;;;;;4.83;3.80;;;;;4.80;96979.00;;;;4963308;28;21104;-85
2022/04/13 00:13:36;;;;;;;6.33;4.83;;;;;5.00;96965.00;;;;4962631;28;20434;-85
2022/04/13 00:16:25;;;;;;;4.40;4.00;;;;;5.00;96965.00;;;;4960578;28;20462;-85
2022/04/13 00:19:14;;;;;;;4.73;4.10;;;;;5.00;96976.00;;;;4952133;28;20459;-85
2022/04/13 00:22:05;;;;;;;5.83;5.30;;;;;4.90;96968.00;;;;4961505;28;20443;-85
2022/04/13 00:24:54;;;;;;;4.10;3.63;;;;;4.70;96972.00;;;;4966705;28;20434;-86
2022/04/13 00:27:43;;;;;;;5.60;4.00;;;;;5.00;96966.00;;;;4957116;28;20470;-85
2022/04/13 00:30:32;;;;;;;7.37;4.60;;;;;4.90;96968.00;;;;4956774;28;20453;-85
2022/04/13 00:33:21;;;;;;;5.20;4.33;;;;;4.30;96961.00;;;;4983786;28;20442;-86
2022/04/13 00:36:10;;;;;;;7.80;4.83;;;;;4.80;96959.00;;;;4983038;28;20452;-85
2022/04/13 00:39:03;;;;;;;5.93;4.83;;;;;5.00;96956.00;;;;4969624;28;20431;-87
2022/04/13 00:41:58;;;;;;;5.77;4.43;;;;;5.10;96955.00;;;;4965340;28;20431;-87
2022/04/13 00:44:47;;;;;;;4.83;4.43;;;;;5.00;96954.00;;;;4962780;28;20471;-88
2022/04/13 00:47:40;;;;;;;5.50;4.83;;;;;4.80;96946.00;;;;4964295;28;20443;-87
2022/04/13 00:50:29;;;;;;;4.43;4.03;;;;;4.50;96944.00;;;;4965208;28;20844;-88
2022/04/13 00:53:20;;;;;;;6.13;4.13;;;;;4.10;96940.00;;;;4966903;28;20450;-88
2022/04/13 00:56:11;;;;;;;7.30;3.87;;;;;4.00;96935.00;;;;4964953;28;20445;-87
2022/04/13 00:59:05;;;;;;;6.00;4.23;;;;;4.20;96939.00;;;;4968732;28;20444;-87
2022/04/13 01:01:57;;;;;;;5.30;4.80;;;;;4.00;96936.00;;;;4962819;28;20436;-87
2022/04/13 01:04:46;;;;;;;5.60;4.43;;;;;4.00;96936.00;;;;4965711;28;20463;-88
2022/04/13 01:07:36;;;;;;;4.80;4.13;;;;;4.00;96938.00;;;;4969278;28;20450;-86
2022/04/13 01:10:27;;;;;;;6.27;4.20;;;;;3.90;96936.00;;;;4976084;28;20462;-87
2022/04/13 01:13:18;;;;;;;7.97;5.57;;;;;4.00;96926.00;;;;4970094;28;20435;-87
2022/04/13 01:16:07;;;;;;;5.47;4.70;;;;;4.40;96933.00;;;;4968974;28;20914;-87
2022/04/13 01:18:57;;;;;;;5.30;4.80;;;;;4.70;96932.00;;;;4972771;28;20441;-86
2022/04/13 01:21:52;;;;;;;6.27;5.00;;;;;4.60;96934.00;;;;4969534;28;20436;-87
2022/04/13 01:24:43;;;;;;;5.43;4.83;;;;;4.20;96928.00;;;;4968889;28;20451;-89
2022/04/13 01:27:32;;;;;;;4.57;4.17;;;;;4.20;96933.00;;;;4959711;28;20442;-88
2022/04/13 01:30:23;;;;;;;5.80;4.77;;;;;4.20;96924.00;;;;4964075;28;20458;-85
2022/04/13 01:33:12;;;;;;;7.00;5.43;;;;;4.30;96928.00;;;;4969493;28;20426;-87
2022/04/13 01:36:01;;;;;;;5.83;4.57;;;;;4.10;96937.00;;;;4966228;28;20439;-86
2022/04/13 01:38:50;;;;;;;9.80;5.27;;;;;4.00;96939.00;;;;4961970;28;20793;-86
2022/04/13 01:41:41;;;;;;;5.23;4.33;;;;;4.00;96931.00;;;;4964602;28;20437;-88
2022/04/13 01:44:30;;;;;;;6.17;4.43;;;;;3.60;96925.00;;;;4962169;28;20446;-85
2022/04/13 01:47:19;;;;;;;4.47;4.03;;;;;3.30;96932.00;;;;4967657;28;20443;-85
2022/04/13 01:50:09;;;;;;;5.13;4.37;;;;;3.60;96936.00;;;;4967037;28;21218;-87
2022/04/13 01:52:58;;;;;;;7.73;5.33;;;;;4.00;96937.00;;;;4967689;28;20442;-87
2022/04/13 01:55:48;;;;;;;6.43;5.23;;;;;4.10;96941.00;;;;4967608;28;20988;-86
2022/04/13 01:58:38;;;;;;;6.73;5.17;;;;;3.60;96933.00;;;;4963645;28;20438;-86
2022/04/13 02:01:27;;;;;;;8.30;6.53;;;;;3.80;96936.00;;;;4965549;28;20431;-86
2022/04/13 02:04:20;;;;;;;9.23;5.67;;;;;3.60;96937.00;;;;4960336;28;20531;-86
2022/04/13 02:07:09;;;;;;;6.00;5.20;;;;;3.60;96932.00;;;;4971367;28;20438;-86
2022/04/13 02:09:58;;;;;;;8.87;5.77;;;;;3.90;96939.00;;;;4959760;28;20478;-86
2022/04/13 02:12:48;;;;;;;6.67;5.43;;;;;4.20;96941.00;;;;4959981;28;20813;-86
2022/04/13 02:15:39;;;;;;;8.33;4.97;;;;;4.00;96943.00;;;;4962747;28;20432;-85
2022/04/13 02:18:28;;;;;;;7.47;6.47;;;;;3.80;96937.00;;;;4962481;28;20431;-87
2022/04/13 02:21:17;;;;;;;6.47;5.40;;;;;3.50;96937.00;;;;4966683;28;20446;-86
2022/04/13 02:24:07;;;;;;;6.07;5.03;;;;;3.30;96940.00;;;;4954809;28;20440;-85
2022/04/13 02:26:57;;;;;;;8.17;5.63;;;;;3.10;96927.00;;;;4955208;28;20444;-88
2022/04/13 02:29:47;;;;;;;7.60;5.57;;;;;3.20;96931.00;;;;4963339;28;20868;-88
2022/04/13 02:32:40;;;;;;;6.80;5.70;;;;;3.40;96937.00;;;;4967993;28;20443;-87
2022/04/13 02:35:29;;;;;;;6.20;5.60;;;;;3.70;96943.00;;;;4960352;28;20956;-86
2022/04/13 02:38:18;;;;;;;6.13;5.53;;;;;3.90;96941.00;;;;4958362;28;20423;-88
2022/04/13 02:41:07;;;;;;;5.20;4.17;;;;;3.80;96938.00;;;;4960372;28;20448;-86
2022/04/13 02:43:56;;;;;;;5.77;5.20;;;;;3.30;96933.00;;;;4961681;28;20439;-87
2022/04/13 02:46:45;;;;;;;10.80;4.50;;;;;2.80;96935.00;;;;4964173;28;21306;-87
2022/04/13 02:49:36;;;;;;;10.97;6.40;;;;;3.20;96940.00;;;;4962694;28;20479;-87
2022/04/13 02:52:28;;;;;;;5.60;5.10;;;;;3.10;96938.00;;;;4968466;28;20799;-87
2022/04/13 02:55:17;;;;;;;6.13;5.33;;;;;3.20;96940.00;;;;4958313;28;20436;-86
2022/04/13 02:58:06;;;;;;;6.97;5.80;;;;;3.20;96927.00;;;;4965945;28;20461;-88
2022/04/13 03:00:55;;;;;;;7.90;6.00;;;;;3.30;96922.00;;;;4964121;28;20451;-86
2022/04/13 03:03:44;;;;;;;9.10;7.32;;;;;3.20;96928.00;;;;4959317;28;20429;-86
2022/04/13 03:06:35;;;;;;;10.20;7.05;;;;;3.30;96931.00;;;;4963694;28;20415;-87
2022/04/13 03:09:24;;;;;;;7.82;6.85;;;;;3.40;96929.00;;;;4961928;28;20439;-85
2022/04/13 03:12:15;;;;;;;7.53;5.87;;;;;3.30;96935.00;;;;4970919;28;20218;-86
2022/04/13 03:15:06;;;;;;;7.27;6.33;;;;;3.30;96936.00;;;;4969338;28;20427;-87
2022/04/13 03:17:55;;;;;;;6.43;5.60;;;;;3.50;96942.00;;;;4962975;28;20442;-85
2022/04/13 03:20:44;;;;;;;5.87;5.23;;;;;3.60;96932.00;;;;4968557;28;20447;-86
2022/04/13 03:23:34;;;;;;;10.53;5.73;;;;;3.70;96939.00;;;;4965189;28;20436;-86
2022/04/13 03:26:23;;;;;;;5.83;5.20;;;;;3.70;96941.00;;;;4966777;28;20442;-87
2022/04/13 03:29:12;;;;;;;7.97;5.20;;;;;3.50;96945.00;;;;4958167;28;20991;-88
2022/04/13 03:32:01;;;;;;;9.37;5.60;;;;;3.30;96943.00;;;;4962237;28;20459;-87
2022/04/13 03:34:50;;;;;;;5.93;5.33;;;;;3.10;96930.00;;;;4968758;28;20438;-86
2022/04/13 03:37:40;;;;;;;5.10;4.60;;;;;3.20;96943.00;;;;4966790;28;20820;-86
2022/04/13 03:40:30;;;;;;;4.80;4.37;;;;;3.10;96940.00;;;;4965285;28;20466;-84
2022/04/13 03:43:20;;;;;;;9.17;5.40;;;;;3.30;96951.00;;;;4968976;28;20438;-85
2022/04/13 03:46:09;;;;;;;5.60;5.00;;;;;3.40;96947.00;;;;4959418;28;20462;-84
2022/04/13 03:48:58;;;;;;;6.17;4.87;;;;;3.30;96939.00;;;;4958149;28;20485;-85
2022/04/13 03:51:47;;;;;;;7.97;5.30;;;;;3.20;96948.00;;;;4959865;28;20459;-86
2022/04/13 03:54:36;;;;;;;7.23;5.47;;;;;3.40;96962.00;;;;4964570;28;20431;-86
2022/04/13 03:57:26;;;;;;;9.53;5.23;;;;;3.50;96970.00;;;;4962541;28;20454;-86
2022/04/13 04:00:16;;;;;;;10.40;5.43;;;;;3.40;96959.00;;;;4966575;28;20455;-83
2022/04/13 04:03:05;;;;;;;10.00;5.13;;;;;3.30;96968.00;;;;4958788;28;20435;-85
2022/04/13 04:05:55;;;;;;;9.10;6.40;;;;;3.10;96971.00;;;;4957651;28;20469;-87
2022/04/13 04:08:44;;;;;;;9.20;6.03;;;;;3.10;96976.00;;;;4975567;28;20439;-85
2022/04/13 04:11:33;;;;;;;7.93;5.83;;;;;2.90;96983.00;;;;4994672;28;20452;-85
2022/04/13 04:14:23;;;;;;;6.87;5.90;;;;;3.00;96983.00;;;;4978121;28;20432;-89
2022/04/13 04:17:12;;;;;;;7.13;5.27;;;;;2.90;97001.00;;;;4955015;28;20435;-87
2022/04/13 04:20:02;;;;;;;9.20;5.77;;;;;3.00;96985.00;;;;4973133;28;20478;-87
2022/04/13 04:22:51;;;;;;;7.70;6.27;;;;;3.10;96984.00;;;;4973435;28;20423;-84
2022/04/13 04:25:40;;;;;;;9.63;6.00;;;;;3.10;96997.00;;;;4973787;28;20431;-88
2022/04/13 04:28:29;;;;;;;8.60;5.30;;;;;3.20;96990.00;;;;4963041;28;20434;-87
2022/04/13 04:31:49;;;;;;;5.37;4.90;;;;;3.30;97003.00;;;;4957705;28;20483;-88
2022/04/13 04:34:28;;;;;;;6.03;5.43;;;;;3.20;97000.00;;;;4974465;28;20442;-88
2022/04/13 04:37:17;;;;;;;6.13;5.53;;;;;3.00;97007.00;;;;4964581;28;20444;-88
2022/04/13 04:40:08;;;;;;;8.60;5.80;;;;;3.10;96998.00;;;;4965293;28;20452;-86
2022/04/13 04:42:58;;;;;;;6.13;5.17;;;;;3.10;97019.00;;;;4963554;28;20479;-86
2022/04/13 04:45:47;;;;;;;8.00;5.53;;;;;3.40;97010.00;;;;4976922;28;20459;-86
2022/04/13 04:48:40;;;;;;;6.10;5.53;;;;;3.60;97019.00;;;;4977028;28;20917;-87
2022/04/13 04:51:30;;;;;;;6.73;4.83;;;;;3.50;97017.00;;;;4967034;28;20463;-87
2022/04/13 04:54:19;;;;;;;8.23;5.13;;;;;3.40;97023.00;;;;4963522;28;20431;-88
2022/04/13 04:57:09;;;;;;;6.70;5.13;;;;;3.30;97026.00;;;;4969874;28;20452;-88
2022/04/13 04:59:58;;;;;;;6.53;5.57;;;;;3.40;97027.00;;;;4970289;28;20442;-87
2022/04/13 05:02:48;;;;;;;8.33;5.47;;;;;3.50;97033.00;;;;4972474;28;20447;-88
2022/04/13 05:05:41;;;;;;;8.27;5.40;;;;;3.50;97031.00;;;;4964124;28;20537;-87
2022/04/13 05:08:30;;;;;;;8.60;6.27;;;;;3.20;97024.00;;;;4966635;28;20443;-87
2022/04/13 05:11:20;;;;;;;11.37;8.67;;;;;3.30;97030.00;;;;4958840;28;20482;-87
2022/04/13 05:14:09;;;;;;;8.83;6.97;;;;;3.40;97036.00;;;;4964750;28;20419;-88
2022/04/13 05:16:58;;;;;;;8.90;6.17;;;;;3.40;97039.00;;;;4968685;28;20464;-85
2022/04/13 05:19:50;;;;;;;8.90;5.73;;;;;3.50;97038.00;;;;4967012;28;20463;-87
2022/04/13 05:22:40;;;;;;;7.73;4.60;;;;;3.20;97043.00;;;;4967473;28;20422;-86
2022/04/13 05:25:29;;;;;;;7.37;4.83;;;;;3.10;97042.00;;;;4965921;28;20445;-87
2022/04/13 05:28:18;;;;;;;7.60;6.30;;;;;3.10;97046.00;;;;4960948;28;20427;-85
2022/04/13 05:31:08;;;;;;;7.37;4.77;;;;;3.10;97046.00;;;;4958408;28;20488;-88
2022/04/13 05:33:57;;;;;;;4.43;4.03;;;;;3.00;97049.00;;;;4969325;28;20426;-86
2022/04/13 05:36:46;;;;;;;8.43;5.60;;;;;3.30;97050.00;;;;4964433;28;20808;-87
2022/04/13 05:39:38;;;;;;;9.57;5.47;;;;;3.70;97050.00;;;;4967803;28;20443;-89
2022/04/13 05:42:27;;;;;;;6.77;5.13;;;;;3.80;97049.00;;;;4964842;28;20431;-86
2022/04/13 05:45:17;;;;;;;6.13;5.50;;;;;3.80;97050.00;;;;4970403;28;20446;-88
2022/04/13 05:48:06;;;;;;;6.67;5.70;;;;;4.00;97051.00;;;;4969276;28;20431;-86
2022/04/13 05:50:55;;;;;;;6.03;4.87;;;;;4.20;97054.00;;;;4972637;28;20463;-85
2022/04/13 05:53:47;;;;;;;10.87;7.33;;;;;4.40;97063.00;;;;4973722;28;20439;-85
2022/04/13 05:56:37;;;;;;;5.97;5.20;;;;;4.40;97064.00;;;;4973262;28;20439;-87
2022/04/13 05:59:26;;;;;;;9.80;6.00;;;;;4.50;97058.00;;;;4965524;28;20467;-85
2022/04/13 06:02:15;;;;;;;6.47;5.77;;;;;4.60;97062.00;;;;4964437;28;20455;-87
2022/04/13 06:05:06;;;;;;;8.40;5.83;;;;;4.80;97063.00;;;;4965299;28;20457;-88
2022/04/13 06:07:55;;;;;;;9.60;5.93;;;;;4.90;97052.00;;;;4965233;28;20604;-86
2022/04/13 06:10:44;;;;;;;11.13;6.60;;;;;5.20;97060.00;;;;4962623;28;20502;-86
2022/04/13 06:13:35;;;;;;;6.43;5.37;;;;;5.30;97071.00;;;;4971214;28;21145;-87
2022/04/13 06:16:24;;;;;;;6.47;5.03;;;;;5.50;97068.00;;;;4979450;28;20435;-87
2022/04/13 06:19:13;;;;;;;13.30;5.47;;;;;5.70;97063.00;;;;4974348;28;20471;-87
2022/04/13 06:22:02;;;;;;;9.33;5.73;;;;;6.00;97063.00;;;;4979299;28;20440;-90
2022/04/13 06:24:52;;;;;;;6.70;5.57;;;;;6.40;97072.00;;;;4973459;28;20431;-89
2022/04/13 06:27:41;;;;;;;6.83;5.03;;;;;6.50;97071.00;;;;4982643;28;20207;-90
2022/04/13 06:30:32;;;;;;;10.97;5.83;;;;;6.70;97068.00;;;;4979796;28;20232;-90
2022/04/13 06:33:21;;;;;;;6.77;5.47;;;;;6.90;97078.00;;;;4984921;28;20211;-89
2022/04/13 06:36:10;;;;;;;7.60;4.80;;;;;7.10;97077.00;;;;4971808;28;20227;-89
2022/04/13 06:38:59;;;;;;;11.03;6.70;;;;;7.30;97084.00;;;;4985143;28;20211;-90
2022/04/13 06:41:53;;;;;;;6.07;5.47;;;;;7.50;97084.00;;;;4979324;28;20211;-88
2022/04/13 06:44:44;;;;;;;5.87;4.83;;;;;7.90;97086.00;;;;4974063;28;20226;-86
2022/04/13 06:47:35;;;;;;;7.30;5.70;;;;;8.00;97082.00;;;;4978268;28;20200;-91
2022/04/13 06:50:26;;;;;;;7.23;5.27;;;;;8.20;97084.00;;;;4976678;28;20231;-89
2022/04/13 06:53:17;;;;;;;5.73;5.13;;;;;8.40;97080.00;;;;4983882;28;20215;-88
2022/04/13 06:56:06;;;;;;;10.10;5.43;;;;;8.60;97100.00;;;;4979280;28;20211;-88
2022/04/13 06:58:55;;;;;;;7.87;6.03;;;;;8.80;97090.00;;;;4975496;28;20200;-91
2022/04/13 07:01:44;;;;;;;6.83;5.57;;;;;9.10;97097.00;;;;4986668;28;20211;-88
2022/04/13 07:04:35;;;;;;;7.97;5.17;;;;;9.30;97088.00;;;;4980785;28;20234;-88
2022/04/13 07:07:24;;;;;;;8.70;5.80;;;;;9.70;97100.00;;;;4971471;28;20204;-88
2022/04/13 07:10:13;;;;;;;5.43;4.77;;;;;9.90;97099.00;;;;4979629;28;20234;-88
2022/04/13 07:13:02;;;;;;;5.90;4.97;;;;;10.40;97091.00;;;;4972406;28;20208;-89
2022/04/13 07:15:52;;;;;;;6.63;5.03;;;;;10.60;97088.00;;;;4973643;28;20210;-89
2022/04/13 07:18:42;;;;;;;7.40;5.50;;;;;10.80;97093.00;;;;4966272;28;20203;-90
2022/04/13 07:21:32;;;;;;;6.00;4.97;;;;;11.20;97098.00;;;;4969997;28;20223;-88
2022/04/13 07:24:38;;;;;;;5.07;4.57;;;;;11.20;97095.00;;;;4967469;28;20211;-89
2022/04/13 07:27:28;;;;;;;10.67;5.30;;;;;11.30;97100.00;;;;4964280;28;20204;-90
2022/04/13 07:30:17;;;;;;;6.77;5.03;;;;;11.40;97091.00;;;;4970359;28;20224;-90
2022/04/13 07:33:06;;;;;;;6.27;4.33;;;;;11.70;97092.00;;;;4970346;28;20242;-90
2022/04/13 07:35:55;;;;;;;7.13;4.83;;;;;11.70;97092.00;;;;4971913;28;20214;-88
2022/04/13 07:38:46;;;;;;;7.80;6.30;;;;;12.10;97091.00;;;;4968897;28;20222;-89
2022/04/13 07:41:35;;;;;;;5.47;4.00;;;;;12.30;97092.00;;;;4969775;28;20199;-87
2022/04/13 07:44:24;;;;;;;9.70;5.17;;;;;12.40;97107.00;;;;4976769;28;20223;-89
2022/04/13 07:47:21;;;;;;;7.00;5.07;;;;;12.80;97099.00;;;;4980497;28;20188;-91
2022/04/13 07:50:12;;;;;;;7.13;4.37;;;;;12.90;97103.00;;;;4983292;28;20212;-91
2022/04/13 07:53:01;;;;;;;7.03;5.03;;;;;13.10;97103.00;;;;4982133;28;20219;-88
2022/04/13 07:55:54;;;;;;;6.63;5.90;;;;;13.20;97099.00;;;;4970134;28;20196;-90
2022/04/13 07:58:43;;;;;;;8.77;4.70;;;;;13.40;97094.00;;;;4973494;28;20215;-87
2022/04/13 08:01:32;;;;;;;5.77;4.00;;;;;13.70;97105.00;;;;4967459;28;20204;-90
2022/04/13 08:04:22;;;;;;;5.13;4.67;;;;;13.80;97115.00;;;;4970137;28;20726;-89
2022/04/13 08:07:15;;;;;;;6.17;4.80;;;12.80;99.90;14.00;97106.00;;;;4972864;28;20203;-91
2022/04/13 08:10:04;;;;;;;5.93;4.23;;;12.80;99.90;13.90;97115.00;;;;4967774;28;20231;-89
2022/04/13 08:12:55;;;;;;;7.30;4.73;;;13.10;99.90;14.20;97117.00;;;;4980410;28;20234;-90
2022/04/13 08:15:44;;;;;;;5.57;3.90;;;13.10;99.90;14.60;97121.00;;;;4965491;28;20231;-86
2022/04/13 08:18:35;;;;;;;14.17;5.07;;;13.20;99.90;14.60;97117.00;;;;4967742;28;20208;-90
2022/04/13 08:21:24;;;;;;;14.97;5.37;;;13.50;99.90;14.90;97115.00;;;;4971495;28;20690;-89
2022/04/13 08:24:13;;;;;;;7.83;5.70;;;13.70;99.90;15.10;97116.00;;;;4962988;28;20200;-88
2022/04/13 08:27:02;;;;;;;12.17;6.07;;;13.80;99.90;15.20;97115.00;;;;4970090;28;20226;-86
2022/04/13 08:29:53;;;;;;;18.93;8.30;;;14.00;99.90;15.40;97118.00;;;;4968736;28;20220;-86
2022/04/13 08:32:42;;;;;;;15.23;7.43;;;14.20;99.90;15.70;97111.00;;;;4972304;28;20229;-89
2022/04/13 08:35:31;;;;;;;17.83;8.40;;;14.30;99.90;15.80;97111.00;;;;4977873;28;20203;-88
2022/04/13 08:38:20;;;;;;;10.67;6.73;;;14.50;99.90;15.50;97105.00;;;;4968257;28;20215;-89
2022/04/13 08:41:16;;;;;;;12.93;7.57;;;14.60;97.60;16.00;97112.00;;;;4965889;28;20235;-87
2022/04/13 08:44:15;;;;;;;13.83;6.77;;;14.70;96.10;16.10;97115.00;;;;4978971;28;20208;-86
2022/04/13 08:47:13;;;;;;;5.60;5.03;;;14.90;95.40;15.80;97110.00;;;;4977636;28;20207;-86
2022/04/13 08:50:03;;;;;;;9.27;4.97;;;15.00;92.40;16.00;97118.00;;;;4970137;28;20243;-88
2022/04/13 08:52:58;;;;;;;9.43;6.67;;;15.10;92.60;16.10;97112.00;;;;4966398;28;20231;-89
2022/04/13 08:56:56;;;;;;;5.53;4.00;;;15.20;91.50;16.30;97117.00;;;;4983451;28;20762;-87
2022/04/13 09:00:10;;;;;;;7.00;4.80;;;15.60;90.60;16.40;97119.00;;;;4944435;23;20281;-88
2022/04/13 09:03:18;;;;;;;9.17;5.07;;;15.40;90.60;16.50;97114.00;;;;4983628;28;20206;-89
2022/04/13 09:06:10;;;;;;;5.33;4.30;;;15.50;87.70;16.70;97121.00;;;;4991809;28;20258;-88
2022/04/13 09:09:02;;;;;;;5.60;4.73;;;15.60;85.30;16.70;97125.00;;;;4982314;28;20196;-88
2022/04/13 09:11:52;;;;;;;9.43;5.23;;;15.70;84.10;17.00;97124.00;;;;4987313;28;20572;-88
2022/04/13 09:14:41;;;;;;;7.87;4.40;;;15.90;84.00;17.10;97118.00;;;;4991758;28;20218;-87
2022/04/13 09:17:30;;;;;;;5.33;4.20;;;16.00;82.40;16.90;97111.00;;;;4999166;28;20207;-82
2022/04/13 09:20:20;;;;;;;5.90;4.57;;;16.10;80.20;17.60;97124.00;;;;4990844;28;20210;-87
2022/04/13 09:23:09;;;;;;;5.23;4.00;;;16.30;80.40;17.80;97110.00;;;;4993060;28;20210;-88
2022/04/13 09:26:00;;;;;;;5.30;4.17;;;16.50;79.30;18.00;97115.00;;;;4998642;28;20303;-87
2022/04/13 09:28:48;;;;;;;5.27;3.97;;;16.60;78.00;17.60;97105.00;;;;5016923;23;20593;-72
2022/04/13 09:31:37;;;;;;;6.10;4.37;;;16.70;76.90;16.50;97098.00;;;;4990246;28;20666;-72
2022/04/13 09:34:26;;;;;;;4.77;4.10;;;16.50;74.80;17.40;97102.00;;;;4981095;28;20578;-72
2022/04/13 09:37:16;;;;;;;6.67;4.50;;;16.40;76.40;17.80;97105.00;;;;4991358;28;20206;-72
2022/04/13 09:40:06;;;;;;;6.37;4.63;;;16.60;75.90;18.00;97101.00;;;;4986970;28;20223;-72
2022/04/13 23:05:21;;;;;;;6.30;4.50;;;;;7.60;97148.00;;;;4987539;23;20245;-85
2022/04/13 23:08:10;;;;;;;12.07;5.60;;;;;7.80;97148.00;;;;4991236;28;20600;-86
2022/04/13 23:10:59;;;;;;;6.77;5.67;;;;;7.90;97144.00;;;;4985125;28;20693;-85
2022/04/13 23:13:48;;;;;;;5.80;5.13;;;;;7.90;97144.00;;;;4985642;28;20608;-86
2022/04/13 23:16:37;;;;;;;8.77;5.77;;;;;7.80;97142.00;;;;4981248;28;20206;-85
2022/04/13 23:19:27;;;;;;;7.97;5.83;;;;;8.10;97141.00;;;;4981235;28;20203;-86
2022/04/13 23:22:17;;;;;;;7.03;6.13;;;;;8.20;97134.00;;;;4982083;28;20704;-86
2022/04/13 23:25:08;;;;;;;7.60;5.80;;;;;8.10;97137.00;;;;4986559;28;20214;-86
2022/04/13 23:28:00;;;;;;;6.10;4.87;;;;;8.00;97136.00;;;;4987533;28;20227;-86
2022/04/13 23:30:49;;;;;;;10.13;6.07;;;;;7.40;97141.00;;;;4980286;28;20218;-86
2022/04/13 23:33:38;;;;;;;7.90;4.97;;;;;7.30;97136.00;;;;4978224;28;20242;-86
2022/04/13 23:36:27;;;;;;;6.23;5.53;;;;;7.40;97140.00;;;;4981305;28;20585;-84
2022/04/13 23:39:18;;;;;;;6.37;5.53;;;;;7.30;97141.00;;;;4983302;28;20230;-86
2022/04/13 23:42:07;;;;;;;6.00;5.40;;;;;7.10;97134.00;;;;4986120;28;20214;-86
2022/04/13 23:44:56;;;;;;;10.00;5.43;;;;;7.10;97133.00;;;;4984173;28;20192;-86
2022/04/13 23:47:46;;;;;;;5.07;4.67;;;;;6.80;97132.00;;;;4989258;28;20603;-85
2022/04/13 23:50:35;;;;;;;9.77;5.60;;;;;6.90;97126.00;;;;4986959;28;20207;-86
2022/04/13 23:53:24;;;;;;;7.10;6.40;;;;;7.00;97127.00;;;;4985322;28;20222;-84
2022/04/13 23:56:15;;;;;;;6.80;5.40;;;;;6.70;97126.00;;;;4984337;28;20724;-82
2022/04/13 23:59:04;;;;;;;7.33;5.53;;;;;6.30;97114.00;;;;4981982;28;20245;-85
